createdAt,value
2022-11-12T00:00:40.743Z,18.63
2022-11-12T00:03:07.906Z,19.42
2022-11-12T00:05:34.915Z,17.65
2022-11-12T00:08:01.957Z,19.05
2022-11-12T00:10:29.012Z,19.45
2022-11-12T00:12:56.013Z,19.02
2022-11-12T00:15:23.043Z,18.83
2022-11-12T00:17:50.121Z,17.10
2022-11-12T00:20:17.223Z,18.15
2022-11-12T00:22:44.293Z,18.30
2022-11-12T00:25:11.455Z,17.45
2022-11-12T00:27:38.590Z,18.20
2022-11-12T00:30:06.084Z,17.83
2022-11-12T00:32:33.128Z,16.80
2022-11-12T00:35:02.630Z,17.10
2022-11-12T00:37:30.001Z,18.77
2022-11-12T00:39:57.016Z,16.90
2022-11-12T00:42:24.026Z,17.15
2022-11-12T00:44:51.022Z,18.58
2022-11-12T00:47:18.054Z,17.90
2022-11-12T00:49:45.041Z,17.25
2022-11-12T00:52:12.099Z,17.05
2022-11-12T00:54:39.135Z,17.98
2022-11-12T00:57:06.186Z,18.25
2022-11-12T00:59:33.273Z,17.13
2022-11-12T01:02:00.291Z,17.50
2022-11-12T01:04:27.326Z,17.40
2022-11-12T01:06:54.435Z,17.95
2022-11-12T01:09:21.493Z,17.55
2022-11-12T01:11:48.892Z,17.17
2022-11-12T01:14:15.923Z,16.60
2022-11-12T01:16:43.292Z,17.60
2022-11-12T01:19:11.022Z,16.80
2022-11-12T01:21:39.099Z,16.67
2022-11-12T01:24:06.317Z,17.17
2022-11-12T01:26:33.329Z,17.27
2022-11-12T01:29:00.320Z,16.65
2022-11-12T01:31:28.270Z,15.95
2022-11-12T01:33:56.194Z,15.98
2022-11-12T01:36:23.398Z,16.38
2022-11-12T01:38:50.486Z,16.38
2022-11-12T01:41:18.484Z,16.35
2022-11-12T01:43:45.508Z,16.60
2022-11-12T01:46:29.309Z,16.65
2022-11-12T01:48:59.837Z,15.75
2022-11-12T01:53:54.373Z,16.35
2022-11-12T01:56:21.492Z,14.85
2022-11-12T01:58:48.506Z,15.68
2022-11-12T02:01:15.600Z,16.98
2022-11-12T02:03:42.681Z,15.50
2022-11-12T02:06:10.499Z,16.55
2022-11-12T02:08:37.517Z,15.35
2022-11-12T02:11:18.663Z,16.27
2022-11-12T02:13:58.229Z,15.05
2022-11-12T02:16:32.821Z,15.80
2022-11-12T02:19:00.108Z,14.95
2022-11-12T02:21:27.228Z,16.17
2022-11-12T02:24:00.587Z,15.75
2022-11-12T02:26:27.618Z,15.15
2022-11-12T02:28:54.622Z,15.73
2022-11-12T02:31:21.644Z,15.63
2022-11-12T02:33:48.659Z,14.02
2022-11-12T02:36:15.661Z,13.43
2022-11-12T02:38:42.758Z,14.60
2022-11-12T02:41:09.810Z,15.05
2022-11-12T02:43:36.803Z,14.38
2022-11-12T02:46:03.810Z,15.88
2022-11-12T02:48:30.966Z,14.30
2022-11-12T02:50:58.369Z,14.85
2022-11-12T02:53:25.410Z,15.55
2022-11-12T02:55:52.420Z,15.05
2022-11-12T02:58:19.454Z,14.95
2022-11-12T03:00:46.499Z,14.73
2022-11-12T03:03:13.565Z,14.70
2022-11-12T03:05:40.858Z,14.40
2022-11-12T03:08:08.220Z,14.55
2022-11-12T03:10:35.263Z,14.63
2022-11-12T03:13:02.374Z,14.38
2022-11-12T03:15:29.529Z,14.60
2022-11-12T03:17:57.991Z,14.90
2022-11-12T03:20:25.197Z,15.02
2022-11-12T03:22:56.222Z,14.57
2022-11-12T03:25:23.553Z,13.57
2022-11-12T03:27:56.687Z,13.05
2022-11-12T03:30:23.779Z,13.38
2022-11-12T03:32:50.850Z,13.32
2022-11-12T03:35:17.896Z,14.10
2022-11-12T03:37:44.897Z,15.35
2022-11-12T03:40:11.941Z,12.77
2022-11-12T03:42:38.974Z,13.40
2022-11-12T03:45:06.146Z,15.13
2022-11-12T03:47:33.158Z,13.73
2022-11-12T03:50:00.172Z,13.32
2022-11-12T03:52:27.162Z,13.63
2022-11-12T03:54:54.246Z,13.00
2022-11-12T03:57:21.307Z,13.00
2022-11-12T03:59:48.320Z,13.55
2022-11-12T04:02:15.340Z,12.40
2022-11-12T04:05:00.940Z,12.23
2022-11-12T04:07:46.731Z,13.15
2022-11-12T04:10:13.728Z,11.80
2022-11-12T04:12:59.506Z,11.20
2022-11-12T04:15:26.511Z,12.70
2022-11-12T04:18:12.156Z,12.57
2022-11-12T04:20:57.726Z,12.13
2022-11-12T04:23:24.735Z,12.35
2022-11-12T04:26:10.181Z,13.07
2022-11-12T04:28:37.206Z,12.63
2022-11-12T04:31:04.254Z,14.57
2022-11-12T04:33:31.256Z,14.27
2022-11-12T04:35:58.296Z,14.82
2022-11-12T04:38:25.498Z,14.82
2022-11-12T04:41:11.178Z,15.70
2022-11-12T04:43:57.116Z,15.63
2022-11-12T04:46:24.150Z,15.10
2022-11-12T04:48:51.162Z,14.48
2022-11-12T04:51:37.028Z,14.93
2022-11-12T04:54:04.081Z,12.50
2022-11-12T04:56:31.076Z,13.40
2022-11-12T04:58:58.079Z,13.18
2022-11-12T05:01:25.125Z,13.52
2022-11-12T05:03:52.153Z,13.43
2022-11-12T05:06:37.766Z,13.13
2022-11-12T05:09:04.814Z,12.23
2022-11-12T05:11:31.825Z,12.55
2022-11-12T05:13:58.954Z,12.90
2022-11-12T05:16:25.970Z,12.10
2022-11-12T05:18:52.983Z,11.40
2022-11-12T05:21:43.327Z,11.38
2022-11-12T05:26:54.663Z,11.45
2022-11-12T05:29:21.671Z,10.85
2022-11-12T05:31:48.695Z,11.38
2022-11-12T05:34:21.596Z,12.30
2022-11-12T05:36:49.896Z,14.05
2022-11-12T05:39:17.043Z,11.65
2022-11-12T05:42:10.953Z,12.93
2022-11-12T05:44:31.162Z,12.10
2022-11-12T05:46:58.178Z,11.90
2022-11-12T05:49:25.347Z,11.48
2022-11-12T05:51:52.365Z,11.40
2022-11-12T05:54:19.416Z,11.15
2022-11-12T05:56:46.517Z,11.25
2022-11-12T05:59:13.995Z,11.60
2022-11-12T06:01:44.202Z,10.68
2022-11-12T06:04:12.039Z,10.65
2022-11-12T06:06:39.311Z,9.93
2022-11-12T06:09:06.454Z,9.82
2022-11-12T06:11:33.480Z,10.43
2022-11-12T06:14:00.742Z,9.25
2022-11-12T06:16:27.958Z,11.02
2022-11-12T06:18:54.973Z,9.38
2022-11-12T06:21:22.903Z,8.80
2022-11-12T06:23:50.756Z,11.15
2022-11-12T06:26:18.112Z,10.57
2022-11-12T06:28:45.357Z,10.02
2022-11-12T06:31:12.676Z,10.48
2022-11-12T06:33:39.722Z,8.65
2022-11-12T06:36:07.320Z,8.77
2022-11-12T06:38:34.907Z,9.00
2022-11-12T06:41:01.987Z,9.05
2022-11-12T06:43:29.461Z,9.70
2022-11-12T06:45:59.378Z,9.00
2022-11-12T06:48:27.019Z,10.60
2022-11-12T06:50:54.269Z,10.00
2022-11-12T06:53:21.262Z,10.07
2022-11-12T06:55:48.544Z,10.02
2022-11-12T06:58:15.654Z,9.90
2022-11-12T07:00:42.677Z,9.45
2022-11-12T07:03:09.920Z,10.23
2022-11-12T07:05:38.149Z,10.90
2022-11-12T07:08:05.826Z,10.73
2022-11-12T07:10:32.855Z,9.75
2022-11-12T07:12:59.909Z,10.55
2022-11-12T07:15:26.923Z,9.95
2022-11-12T07:17:53.933Z,10.35
2022-11-12T07:20:20.926Z,11.82
2022-11-12T07:22:48.059Z,11.38
2022-11-12T07:25:15.209Z,11.20
2022-11-12T07:27:42.482Z,12.20
2022-11-12T07:30:09.783Z,11.65
2022-11-12T07:32:43.273Z,11.90
2022-11-12T07:35:12.373Z,12.07
2022-11-12T07:37:39.454Z,11.32
2022-11-12T07:40:06.760Z,9.82
2022-11-12T07:42:34.483Z,10.43
2022-11-12T07:45:01.548Z,13.65
2022-11-12T07:47:28.623Z,11.30
2022-11-12T07:49:55.721Z,9.95
2022-11-12T07:52:22.718Z,9.98
2022-11-12T07:54:49.793Z,11.45
2022-11-12T07:57:16.833Z,10.27
2022-11-12T07:59:46.330Z,11.57
2022-11-12T08:02:13.761Z,12.23
2022-11-12T08:04:40.745Z,11.40
2022-11-12T08:07:07.947Z,12.80
2022-11-12T08:09:35.065Z,10.85
2022-11-12T08:12:02.148Z,11.35
2022-11-12T08:14:29.137Z,11.30
2022-11-12T08:16:56.152Z,11.23
2022-11-12T08:19:23.202Z,11.45
2022-11-12T08:21:50.344Z,11.20
2022-11-12T08:24:17.351Z,11.88
2022-11-12T08:26:44.441Z,11.75
2022-11-12T08:29:11.453Z,12.15
2022-11-12T08:31:38.639Z,12.13
2022-11-12T08:34:12.444Z,11.50
2022-11-12T08:36:40.394Z,11.27
2022-11-12T08:39:07.815Z,11.65
2022-11-12T08:51:42.071Z,11.90
2022-11-12T08:54:09.094Z,13.13
2022-11-12T08:56:36.132Z,12.48
2022-11-12T08:59:07.165Z,11.93
2022-11-12T09:01:34.372Z,11.75
2022-11-12T09:04:01.474Z,13.70
2022-11-12T09:06:28.515Z,12.23
2022-11-12T09:08:55.579Z,12.02
2022-11-12T09:11:22.654Z,13.50
2022-11-12T09:13:49.969Z,13.68
2022-11-12T09:16:18.045Z,12.40
2022-11-12T09:18:45.046Z,12.75
2022-11-12T09:21:12.640Z,11.55
2022-11-12T09:23:39.630Z,15.27
2022-11-12T09:26:06.736Z,13.07
2022-11-12T09:28:33.893Z,11.85
2022-11-12T09:31:00.898Z,11.00
2022-11-12T09:33:28.839Z,11.23
2022-11-12T09:35:56.182Z,10.13
2022-11-12T09:38:23.361Z,11.45
2022-11-12T09:40:53.409Z,10.32
2022-11-12T09:43:40.290Z,9.63
2022-11-12T09:46:28.506Z,9.80
2022-11-12T09:49:16.193Z,11.40
2022-11-12T09:51:49.054Z,10.48
2022-11-12T09:54:31.861Z,10.23
2022-11-12T09:56:58.992Z,10.45
2022-11-12T09:59:32.877Z,10.32
2022-11-12T10:02:23.305Z,10.65
2022-11-12T10:04:54.879Z,10.23
2022-11-12T10:07:34.074Z,10.18
2022-11-12T10:10:05.395Z,10.80
2022-11-12T10:12:39.082Z,10.45
2022-11-12T10:15:43.923Z,10.65
2022-11-12T10:18:19.921Z,10.63
2022-11-12T10:20:57.189Z,10.48
2022-11-12T10:23:33.446Z,10.65
2022-11-12T10:26:00.684Z,10.80
2022-11-12T10:28:38.358Z,12.25
2022-11-12T10:31:16.015Z,10.70
2022-11-12T10:33:43.039Z,11.73
2022-11-12T10:36:18.022Z,12.05
2022-11-12T10:38:45.049Z,11.60
2022-11-12T10:41:21.232Z,12.45
2022-11-12T10:43:53.696Z,12.93
2022-11-12T10:46:21.438Z,12.02
2022-11-12T10:48:53.861Z,18.10
2022-11-12T10:51:24.457Z,19.98
2022-11-12T10:56:25.763Z,26.10
2022-11-12T10:59:11.804Z,30.73
2022-11-12T11:01:44.483Z,27.67
2022-11-12T11:04:38.994Z,28.45
2022-11-12T11:07:07.069Z,27.05
2022-11-12T11:09:34.390Z,25.35
2022-11-12T11:12:01.502Z,23.50
2022-11-12T11:14:29.748Z,21.05
2022-11-12T11:17:08.537Z,20.27
2022-11-12T11:19:39.691Z,24.48
2022-11-12T11:22:15.758Z,28.67
2022-11-12T11:24:49.453Z,28.23
2022-11-12T11:27:19.520Z,28.30
2022-11-12T11:29:55.494Z,27.65
2022-11-12T11:32:40.623Z,30.00
2022-11-12T11:35:27.104Z,29.70
2022-11-12T11:38:00.028Z,28.48
2022-11-12T11:40:30.748Z,31.08
2022-11-12T11:43:03.842Z,30.83
2022-11-12T11:45:43.313Z,31.45
2022-11-12T11:48:10.378Z,29.60
2022-11-12T11:50:42.932Z,27.70
2022-11-12T11:53:15.990Z,23.92
2022-11-12T11:55:50.270Z,24.95
2022-11-12T11:58:23.573Z,24.35
2022-11-12T12:01:09.485Z,21.48
2022-11-12T12:03:51.870Z,20.30
2022-11-12T12:06:19.079Z,21.70
2022-11-12T12:08:49.096Z,21.30
2022-11-12T12:11:18.277Z,20.90
2022-11-12T12:13:45.292Z,20.50
2022-11-12T12:16:18.249Z,21.05
2022-11-12T12:19:00.804Z,20.48
2022-11-12T12:21:28.520Z,18.88
2022-11-12T12:24:15.786Z,17.13
2022-11-12T12:26:45.207Z,16.13
2022-11-12T12:29:12.380Z,15.73
2022-11-12T12:31:40.577Z,15.15
2022-11-12T12:34:13.699Z,13.02
2022-11-12T12:36:41.526Z,13.07
2022-11-12T12:39:13.495Z,13.40
2022-11-12T12:41:40.573Z,12.73
2022-11-12T12:44:09.207Z,12.43
2022-11-12T12:46:39.706Z,13.55
2022-11-12T12:49:06.862Z,13.23
2022-11-12T12:51:34.210Z,13.80
2022-11-12T12:54:01.332Z,13.85
2022-11-12T12:56:31.353Z,13.23
2022-11-12T12:59:03.387Z,13.88
2022-11-12T13:01:31.814Z,13.75
2022-11-12T13:03:59.496Z,14.13
2022-11-12T13:06:27.609Z,14.48
2022-11-12T13:09:08.220Z,15.23
2022-11-12T13:14:48.275Z,14.13
2022-11-12T13:17:15.310Z,15.35
2022-11-12T13:19:54.734Z,14.63
2022-11-12T13:22:23.450Z,13.88
2022-11-12T13:25:05.899Z,15.20
2022-11-12T13:28:04.433Z,14.63
2022-11-12T13:30:31.790Z,15.50
2022-11-12T13:32:59.039Z,15.18
2022-11-12T13:35:27.055Z,15.13
2022-11-12T13:38:01.688Z,14.70
2022-11-12T13:40:31.734Z,13.48
2022-11-12T13:43:19.075Z,14.07
2022-11-12T13:45:46.157Z,14.48
2022-11-12T13:48:15.684Z,14.75
2022-11-12T13:50:42.766Z,14.52
2022-11-12T13:53:09.853Z,14.65
2022-11-12T13:55:36.884Z,13.20
2022-11-12T13:58:03.908Z,14.15
2022-11-12T14:00:31.813Z,14.48
2022-11-12T14:03:02.720Z,15.15
2022-11-12T14:05:30.419Z,16.35
2022-11-12T14:08:00.538Z,16.00
2022-11-12T14:10:46.491Z,17.13
2022-11-12T14:13:18.202Z,18.42
2022-11-12T14:16:04.097Z,26.15
2022-11-12T14:18:49.986Z,21.95
2022-11-12T14:21:17.562Z,19.55
2022-11-12T14:23:45.322Z,18.40
2022-11-12T14:26:13.159Z,18.95
2022-11-12T14:28:40.274Z,19.58
2022-11-12T14:31:13.949Z,18.15
2022-11-12T14:33:40.989Z,19.70
2022-11-12T14:36:13.020Z,19.23
2022-11-12T14:38:43.995Z,20.67
2022-11-12T14:41:11.541Z,19.90
2022-11-12T14:44:12.182Z,20.13
2022-11-12T14:46:50.429Z,21.67
2022-11-12T14:49:19.021Z,20.63
2022-11-12T14:51:50.101Z,20.40
2022-11-12T14:54:26.254Z,21.23
2022-11-12T14:56:53.310Z,20.98
2022-11-12T14:59:20.318Z,21.13
2022-11-12T15:04:54.838Z,21.48
2022-11-12T15:07:25.011Z,22.17
2022-11-12T15:09:52.096Z,21.85
2022-11-12T15:12:45.462Z,21.95
2022-11-12T15:15:20.892Z,23.75
2022-11-12T15:17:47.935Z,23.63
2022-11-12T15:20:16.011Z,23.23
2022-11-12T15:22:49.750Z,29.40
2022-11-12T15:25:20.882Z,24.50
2022-11-12T15:27:48.036Z,23.50
2022-11-12T15:30:16.331Z,23.58
2022-11-12T15:32:43.401Z,23.77
2022-11-12T15:35:25.746Z,24.25
2022-11-12T15:37:52.770Z,25.23
2022-11-12T15:40:20.541Z,27.48
2022-11-12T15:42:47.702Z,27.38
2022-11-12T15:45:18.619Z,28.33
2022-11-12T15:47:45.716Z,28.45
2022-11-12T15:50:16.986Z,27.65
2022-11-12T15:52:44.016Z,26.85
2022-11-12T15:55:12.389Z,29.05
2022-11-12T15:57:40.742Z,28.30
2022-11-12T16:00:10.794Z,27.45
2022-11-12T16:02:37.818Z,30.38
2022-11-12T16:05:04.951Z,28.73
2022-11-12T16:07:32.014Z,28.48
2022-11-12T16:09:59.108Z,28.85
2022-11-12T16:12:26.100Z,30.25
2022-11-12T16:14:53.185Z,31.48
2022-11-12T16:17:20.941Z,29.27
2022-11-12T16:19:47.963Z,30.15
2022-11-12T16:22:15.023Z,30.35
2022-11-12T16:24:42.162Z,30.02
2022-11-12T16:27:15.441Z,30.65
2022-11-12T16:29:42.484Z,42.97
2022-11-12T16:32:13.127Z,32.53
2022-11-12T16:34:40.174Z,29.00
2022-11-12T16:37:09.472Z,32.65
2022-11-12T16:39:36.497Z,32.20
2022-11-12T16:42:03.519Z,30.33
2022-11-12T16:44:30.658Z,28.67
2022-11-12T16:46:57.671Z,28.15
2022-11-12T16:49:25.996Z,29.17
2022-11-12T16:51:53.028Z,28.83
2022-11-12T16:54:20.052Z,29.70
2022-11-12T16:56:47.241Z,30.13
2022-11-12T16:59:14.494Z,27.23
2022-11-12T17:01:41.586Z,26.80
2022-11-12T17:04:08.591Z,27.70
2022-11-12T17:06:39.767Z,26.48
2022-11-12T17:09:07.332Z,25.80
2022-11-12T17:11:34.845Z,23.13
2022-11-12T17:14:02.030Z,21.70
2022-11-12T17:16:29.282Z,20.65
2022-11-12T17:18:56.666Z,21.25
2022-11-12T17:21:23.703Z,18.60
2022-11-12T17:23:50.870Z,19.20
2022-11-12T17:26:19.112Z,20.23
2022-11-12T17:28:46.354Z,19.25
2022-11-12T17:31:14.100Z,19.83
2022-11-12T17:33:42.020Z,20.50
2022-11-12T17:36:10.078Z,20.27
2022-11-12T17:38:37.142Z,20.67
2022-11-12T17:41:04.182Z,22.27
2022-11-12T17:43:31.263Z,21.25
2022-11-12T17:45:58.374Z,22.85
2022-11-12T17:48:25.367Z,20.98
2022-11-12T17:50:52.796Z,22.00
2022-11-12T17:53:19.854Z,23.00
2022-11-12T17:55:46.894Z,22.67
2022-11-12T17:58:13.917Z,22.35
2022-11-12T18:00:40.975Z,23.10
2022-11-12T18:03:08.035Z,23.00
2022-11-12T18:05:35.131Z,23.33
2022-11-12T18:08:02.445Z,20.65
2022-11-12T18:10:29.758Z,21.85
2022-11-12T18:12:57.719Z,20.98
2022-11-12T18:15:24.801Z,20.92
2022-11-12T18:17:51.794Z,20.17
2022-11-12T18:20:19.720Z,20.88
2022-11-12T18:22:46.792Z,21.17
2022-11-12T18:25:14.944Z,21.10
2022-11-12T18:27:42.088Z,20.50
2022-11-12T18:30:09.305Z,20.02
2022-11-12T18:32:36.571Z,21.45
2022-11-12T18:35:03.621Z,19.77
2022-11-12T18:37:30.667Z,22.42
2022-11-12T18:39:57.688Z,24.30
2022-11-12T18:42:24.746Z,22.50
2022-11-12T18:44:51.761Z,21.52
2022-11-12T18:47:18.784Z,31.48
2022-11-12T18:49:45.764Z,30.00
2022-11-12T18:52:12.869Z,28.35
2022-11-12T18:54:39.891Z,25.45
2022-11-12T18:57:07.054Z,20.77
2022-11-12T18:59:34.079Z,21.63
2022-11-12T19:02:01.164Z,19.67
2022-11-12T19:04:28.376Z,19.70
2022-11-12T19:06:55.434Z,20.17
2022-11-12T19:09:22.492Z,19.02
2022-11-12T19:11:49.488Z,18.67
2022-11-12T19:14:16.534Z,17.60
2022-11-12T19:16:44.682Z,18.33
2022-11-12T19:19:12.382Z,18.40
2022-11-12T19:21:39.464Z,18.75
2022-11-12T19:24:06.890Z,18.63
2022-11-12T19:26:33.917Z,17.85
2022-11-12T19:29:01.473Z,17.90
2022-11-12T19:31:28.543Z,17.17
2022-11-12T19:33:55.688Z,19.13
2022-11-12T19:36:25.800Z,16.95
2022-11-12T19:38:56.635Z,16.40
2022-11-12T19:41:23.878Z,15.88
2022-11-12T19:43:51.085Z,16.02
2022-11-12T19:46:18.186Z,16.33
2022-11-12T19:48:45.188Z,15.60
2022-11-12T19:51:12.385Z,16.58
2022-11-12T19:53:44.577Z,14.90
2022-11-12T19:56:13.517Z,14.93
2022-11-12T19:58:40.918Z,15.50
2022-11-12T20:01:11.501Z,16.42
2022-11-12T20:06:06.453Z,14.35
2022-11-12T20:08:33.586Z,15.18
2022-11-12T20:11:00.813Z,15.32
2022-11-12T20:13:27.843Z,15.07
2022-11-12T20:15:54.874Z,15.18
2022-11-12T20:18:21.914Z,14.48
2022-11-12T20:20:57.832Z,15.25
2022-11-12T20:23:26.144Z,16.48
2022-11-12T20:25:53.599Z,15.82
2022-11-12T20:28:20.638Z,15.20
2022-11-12T20:30:47.670Z,14.73
2022-11-12T20:33:14.685Z,14.32
2022-11-12T20:35:41.744Z,14.55
2022-11-12T20:38:08.896Z,13.63
2022-11-12T20:40:35.923Z,14.45
2022-11-12T20:43:02.968Z,14.73
2022-11-12T20:45:30.003Z,14.50
2022-11-12T20:47:57.092Z,13.15
2022-11-12T20:50:24.355Z,13.88
2022-11-12T20:52:51.421Z,14.00
2022-11-12T20:55:18.449Z,13.90
2022-11-12T20:57:46.182Z,13.82
2022-11-12T21:00:15.319Z,14.65
2022-11-12T21:05:10.800Z,15.18
2022-11-12T21:07:37.799Z,14.07
2022-11-12T21:10:05.009Z,13.52
2022-11-12T21:12:32.144Z,13.40
2022-11-12T21:14:59.378Z,13.88
2022-11-12T21:17:26.433Z,13.88
2022-11-12T21:19:53.468Z,12.63
2022-11-12T21:22:20.510Z,13.65
2022-11-12T21:24:47.530Z,13.27
2022-11-12T21:27:14.577Z,13.85
2022-11-12T21:29:41.585Z,13.48
2022-11-12T21:32:08.632Z,13.77
2022-11-12T21:34:35.705Z,13.63
2022-11-12T21:37:02.769Z,12.85
2022-11-12T21:39:29.868Z,12.68
2022-11-12T21:41:56.891Z,13.73
2022-11-12T21:44:23.942Z,29.23
2022-11-12T21:46:51.014Z,14.25
2022-11-12T21:49:18.061Z,14.13
2022-11-12T21:51:45.094Z,14.02
2022-11-12T21:54:12.150Z,14.00
2022-11-12T21:56:40.130Z,12.73
2022-11-12T21:59:07.229Z,13.80
2022-11-12T22:01:34.842Z,14.18
2022-11-12T22:04:01.893Z,15.20
2022-11-12T22:06:29.326Z,14.48
2022-11-12T22:08:56.769Z,14.98
2022-11-12T22:11:23.957Z,15.30
2022-11-12T22:13:51.012Z,14.23
2022-11-12T22:16:21.778Z,14.70
2022-11-12T22:18:49.651Z,14.80
2022-11-12T22:21:20.525Z,18.90
2022-11-12T22:23:47.606Z,14.57
2022-11-12T22:26:15.322Z,14.02
2022-11-12T22:28:42.350Z,14.65
2022-11-12T22:31:09.386Z,13.98
2022-11-12T22:33:36.444Z,14.40
2022-11-12T22:36:11.100Z,14.60
2022-11-12T22:38:38.957Z,14.95
2022-11-12T22:41:06.889Z,20.15
2022-11-12T22:43:34.003Z,18.42
2022-11-12T22:46:05.098Z,15.30
2022-11-12T22:48:32.254Z,12.50
2022-11-12T22:51:00.505Z,13.88
2022-11-12T22:53:28.070Z,14.55
2022-11-12T22:55:55.146Z,12.20
2022-11-12T22:58:22.336Z,13.02
2022-11-12T23:00:49.433Z,12.63
2022-11-12T23:03:16.533Z,12.05
2022-11-12T23:05:43.706Z,12.45
2022-11-12T23:08:10.795Z,11.88
2022-11-12T23:10:41.646Z,11.55
2022-11-12T23:13:12.575Z,12.18
2022-11-12T23:15:39.597Z,13.13
2022-11-12T23:18:06.635Z,12.15
2022-11-12T23:20:33.674Z,11.85
2022-11-12T23:23:00.677Z,11.73
2022-11-12T23:25:27.705Z,12.32
2022-11-12T23:27:54.699Z,17.63
2022-11-12T23:30:21.752Z,13.85
2022-11-12T23:32:48.782Z,12.57
2022-11-12T23:35:15.904Z,13.13
2022-11-12T23:37:42.917Z,12.48
2022-11-12T23:40:10.080Z,11.98
2022-11-12T23:42:37.115Z,12.13
2022-11-12T23:45:04.231Z,12.13
2022-11-12T23:47:31.260Z,12.13
2022-11-12T23:49:58.274Z,12.18
2022-11-12T23:52:25.344Z,12.95
2022-11-12T23:54:52.392Z,11.82
2022-11-12T23:57:19.417Z,12.30
2022-11-12T23:59:46.435Z,11.82
